sensor_id;sensor_type;location;lat;lon;timestamp;P1;durP1;ratioP1;P2;durP2;ratioP2
56419;SDS011;42323;52.170;7.538;2023-12-28T00:01:45;293.27;;;171.13;;
56419;SDS011;42323;52.170;7.538;2023-12-28T00:04:11;320.27;;;178.18;;
56419;SDS011;42323;52.170;7.538;2023-12-28T00:06:38;310.75;;;180.43;;
56419;SDS011;42323;52.170;7.538;2023-12-28T00:09:04;310.65;;;179.45;;
56419;SDS011;42323;52.170;7.538;2023-12-28T00:11:37;314.08;;;181.35;;
56419;SDS011;42323;52.170;7.538;2023-12-28T00:14:04;320.77;;;178.85;;
56419;SDS011;42323;52.170;7.538;2023-12-28T00:16:31;312.50;;;179.60;;
56419;SDS011;42323;52.170;7.538;2023-12-28T00:19:03;315.38;;;183.32;;
56419;SDS011;42323;52.170;7.538;2023-12-28T00:21:31;326.60;;;179.00;;
56419;SDS011;42323;52.170;7.538;2023-12-28T00:23:57;305.98;;;174.77;;
56419;SDS011;42323;52.170;7.538;2023-12-28T00:26:24;303.58;;;173.80;;
56419;SDS011;42323;52.170;7.538;2023-12-28T00:28:50;318.45;;;181.88;;
56419;SDS011;42323;52.170;7.538;2023-12-28T00:31:17;318.80;;;181.05;;
56419;SDS011;42323;52.170;7.538;2023-12-28T00:33:44;327.83;;;178.77;;
56419;SDS011;42323;52.170;7.538;2023-12-28T00:36:10;313.42;;;180.98;;
56419;SDS011;42323;52.170;7.538;2023-12-28T00:38:37;326.17;;;178.88;;
56419;SDS011;42323;52.170;7.538;2023-12-28T00:41:04;322.27;;;184.30;;
56419;SDS011;42323;52.170;7.538;2023-12-28T00:43:30;307.20;;;175.90;;
56419;SDS011;42323;52.170;7.538;2023-12-28T00:45:57;323.73;;;177.95;;
56419;SDS011;42323;52.170;7.538;2023-12-28T00:48:23;316.33;;;179.10;;
56419;SDS011;42323;52.170;7.538;2023-12-28T00:50:50;313.17;;;178.52;;
56419;SDS011;42323;52.170;7.538;2023-12-28T00:53:16;309.92;;;177.75;;
56419;SDS011;42323;52.170;7.538;2023-12-28T00:55:43;293.77;;;167.70;;
56419;SDS011;42323;52.170;7.538;2023-12-28T00:58:09;234.65;;;139.48;;
56419;SDS011;42323;52.170;7.538;2023-12-28T01:00:36;306.20;;;174.18;;
56419;SDS011;42323;52.170;7.538;2023-12-28T01:03:02;311.23;;;177.70;;
56419;SDS011;42323;52.170;7.538;2023-12-28T01:05:29;314.55;;;177.93;;
56419;SDS011;42323;52.170;7.538;2023-12-28T01:07:56;316.35;;;171.68;;
56419;SDS011;42323;52.170;7.538;2023-12-28T01:10:22;301.85;;;165.15;;
56419;SDS011;42323;52.170;7.538;2023-12-28T01:12:49;279.80;;;159.35;;
56419;SDS011;42323;52.170;7.538;2023-12-28T01:15:15;279.33;;;160.73;;
56419;SDS011;42323;52.170;7.538;2023-12-28T01:17:44;287.05;;;164.63;;
56419;SDS011;42323;52.170;7.538;2023-12-28T01:20:11;305.08;;;173.40;;
56419;SDS011;42323;52.170;7.538;2023-12-28T01:22:37;299.00;;;169.40;;
56419;SDS011;42323;52.170;7.538;2023-12-28T01:25:04;310.08;;;169.55;;
56419;SDS011;42323;52.170;7.538;2023-12-28T01:27:30;315.02;;;173.25;;
56419;SDS011;42323;52.170;7.538;2023-12-28T01:29:57;297.20;;;169.45;;
56419;SDS011;42323;52.170;7.538;2023-12-28T01:32:23;288.65;;;165.43;;
56419;SDS011;42323;52.170;7.538;2023-12-28T01:34:50;298.55;;;162.90;;
56419;SDS011;42323;52.170;7.538;2023-12-28T01:37:16;280.80;;;160.18;;
56419;SDS011;42323;52.170;7.538;2023-12-28T01:39:43;284.73;;;162.80;;
56419;SDS011;42323;52.170;7.538;2023-12-28T01:42:09;287.20;;;164.43;;
56419;SDS011;42323;52.170;7.538;2023-12-28T01:44:36;310.98;;;170.85;;
56419;SDS011;42323;52.170;7.538;2023-12-28T01:47:02;293.27;;;166.88;;
56419;SDS011;42323;52.170;7.538;2023-12-28T01:49:28;288.90;;;163.82;;
56419;SDS011;42323;52.170;7.538;2023-12-28T01:51:55;286.48;;;162.73;;
56419;SDS011;42323;52.170;7.538;2023-12-28T01:54:22;306.77;;;168.50;;
56419;SDS011;42323;52.170;7.538;2023-12-28T01:56:48;308.40;;;167.13;;
56419;SDS011;42323;52.170;7.538;2023-12-28T01:59:15;294.20;;;167.23;;
56419;SDS011;42323;52.170;7.538;2023-12-28T02:01:41;313.95;;;169.02;;
56419;SDS011;42323;52.170;7.538;2023-12-28T02:04:08;300.70;;;169.35;;
56419;SDS011;42323;52.170;7.538;2023-12-28T02:06:34;302.77;;;169.98;;
56419;SDS011;42323;52.170;7.538;2023-12-28T02:09:01;299.85;;;168.73;;
56419;SDS011;42323;52.170;7.538;2023-12-28T02:11:28;305.30;;;170.80;;
56419;SDS011;42323;52.170;7.538;2023-12-28T02:13:54;301.27;;;169.57;;
56419;SDS011;42323;52.170;7.538;2023-12-28T02:16:25;320.27;;;173.27;;
56419;SDS011;42323;52.170;7.538;2023-12-28T02:18:52;316.80;;;177.63;;
56419;SDS011;42323;52.170;7.538;2023-12-28T02:21:20;310.67;;;175.35;;
56419;SDS011;42323;52.170;7.538;2023-12-28T02:23:50;310.80;;;174.57;;
56419;SDS011;42323;52.170;7.538;2023-12-28T02:26:17;316.92;;;177.13;;
56419;SDS011;42323;52.170;7.538;2023-12-28T02:28:44;311.38;;;175.27;;
56419;SDS011;42323;52.170;7.538;2023-12-28T02:31:14;312.27;;;175.90;;
56419;SDS011;42323;52.170;7.538;2023-12-28T02:33:46;327.38;;;182.18;;
56419;SDS011;42323;52.170;7.538;2023-12-28T02:36:14;322.50;;;174.15;;
56419;SDS011;42323;52.170;7.538;2023-12-28T02:38:44;328.95;;;175.43;;
56419;SDS011;42323;52.170;7.538;2023-12-28T02:41:12;314.73;;;175.02;;
56419;SDS011;42323;52.170;7.538;2023-12-28T02:43:38;308.85;;;173.48;;
56419;SDS011;42323;52.170;7.538;2023-12-28T02:46:05;310.02;;;174.10;;
56419;SDS011;42323;52.170;7.538;2023-12-28T02:48:32;314.08;;;176.77;;
56419;SDS011;42323;52.170;7.538;2023-12-28T02:50:58;313.40;;;174.10;;
56419;SDS011;42323;52.170;7.538;2023-12-28T02:53:25;306.98;;;170.40;;
56419;SDS011;42323;52.170;7.538;2023-12-28T02:55:51;324.00;;;173.02;;
56419;SDS011;42323;52.170;7.538;2023-12-28T02:58:17;313.63;;;174.98;;
56419;SDS011;42323;52.170;7.538;2023-12-28T03:00:44;327.00;;;174.43;;
56419;SDS011;42323;52.170;7.538;2023-12-28T03:03:10;311.83;;;173.15;;
56419;SDS011;42323;52.170;7.538;2023-12-28T03:05:37;312.85;;;173.77;;
56419;SDS011;42323;52.170;7.538;2023-12-28T03:08:04;307.48;;;172.32;;
56419;SDS011;42323;52.170;7.538;2023-12-28T03:10:30;307.38;;;170.75;;
56419;SDS011;42323;52.170;7.538;2023-12-28T03:12:56;303.65;;;162.23;;
56419;SDS011;42323;52.170;7.538;2023-12-28T03:15:24;314.15;;;173.45;;
56419;SDS011;42323;52.170;7.538;2023-12-28T03:17:50;317.92;;;175.07;;
56419;SDS011;42323;52.170;7.538;2023-12-28T03:20:17;311.17;;;172.98;;
56419;SDS011;42323;52.170;7.538;2023-12-28T03:22:44;307.70;;;170.48;;
56419;SDS011;42323;52.170;7.538;2023-12-28T03:25:10;300.38;;;167.10;;
56419;SDS011;42323;52.170;7.538;2023-12-28T03:27:36;316.00;;;170.25;;
56419;SDS011;42323;52.170;7.538;2023-12-28T03:30:03;307.30;;;170.07;;
56419;SDS011;42323;52.170;7.538;2023-12-28T03:32:30;309.05;;;172.55;;
56419;SDS011;42323;52.170;7.538;2023-12-28T03:34:56;323.65;;;174.00;;
56419;SDS011;42323;52.170;7.538;2023-12-28T03:37:23;328.05;;;172.95;;
56419;SDS011;42323;52.170;7.538;2023-12-28T03:39:49;314.65;;;173.15;;
56419;SDS011;42323;52.170;7.538;2023-12-28T03:42:16;314.40;;;172.68;;
56419;SDS011;42323;52.170;7.538;2023-12-28T03:44:42;313.45;;;173.73;;
56419;SDS011;42323;52.170;7.538;2023-12-28T03:47:09;312.20;;;171.95;;
56419;SDS011;42323;52.170;7.538;2023-12-28T03:49:35;313.00;;;173.80;;
56419;SDS011;42323;52.170;7.538;2023-12-28T03:52:02;315.45;;;173.77;;
56419;SDS011;42323;52.170;7.538;2023-12-28T03:54:28;315.13;;;174.63;;
56419;SDS011;42323;52.170;7.538;2023-12-28T03:56:55;325.73;;;179.40;;
56419;SDS011;42323;52.170;7.538;2023-12-28T03:59:22;320.90;;;177.65;;
56419;SDS011;42323;52.170;7.538;2023-12-28T04:01:48;325.95;;;179.45;;
56419;SDS011;42323;52.170;7.538;2023-12-28T04:04:14;333.58;;;178.00;;
56419;SDS011;42323;52.170;7.538;2023-12-28T04:06:41;326.15;;;178.77;;
56419;SDS011;42323;52.170;7.538;2023-12-28T04:09:13;323.23;;;179.27;;
56419;SDS011;42323;52.170;7.538;2023-12-28T04:11:39;326.85;;;180.25;;
56419;SDS011;42323;52.170;7.538;2023-12-28T04:14:06;331.88;;;177.43;;
56419;SDS011;42323;52.170;7.538;2023-12-28T04:16:32;324.50;;;180.30;;
56419;SDS011;42323;52.170;7.538;2023-12-28T04:18:58;325.80;;;179.95;;
56419;SDS011;42323;52.170;7.538;2023-12-28T04:21:25;316.70;;;174.20;;
56419;SDS011;42323;52.170;7.538;2023-12-28T04:23:51;328.20;;;181.63;;
56419;SDS011;42323;52.170;7.538;2023-12-28T04:26:18;338.58;;;181.20;;
56419;SDS011;42323;52.170;7.538;2023-12-28T04:28:46;330.63;;;175.63;;
56419;SDS011;42323;52.170;7.538;2023-12-28T04:31:13;335.08;;;176.30;;
56419;SDS011;42323;52.170;7.538;2023-12-28T04:33:39;333.02;;;182.35;;
56419;SDS011;42323;52.170;7.538;2023-12-28T04:36:06;334.52;;;184.25;;
56419;SDS011;42323;52.170;7.538;2023-12-28T04:38:33;352.95;;;184.88;;
56419;SDS011;42323;52.170;7.538;2023-12-28T04:41:00;338.08;;;184.20;;
56419;SDS011;42323;52.170;7.538;2023-12-28T04:43:26;337.83;;;183.45;;
56419;SDS011;42323;52.170;7.538;2023-12-28T04:45:53;337.15;;;182.85;;
56419;SDS011;42323;52.170;7.538;2023-12-28T04:48:19;334.20;;;182.60;;
56419;SDS011;42323;52.170;7.538;2023-12-28T04:50:47;340.20;;;184.23;;
56419;SDS011;42323;52.170;7.538;2023-12-28T04:53:14;348.40;;;184.10;;
56419;SDS011;42323;52.170;7.538;2023-12-28T04:55:41;342.38;;;187.38;;
56419;SDS011;42323;52.170;7.538;2023-12-28T04:58:07;360.67;;;188.02;;
56419;SDS011;42323;52.170;7.538;2023-12-28T05:00:34;344.27;;;186.00;;
56419;SDS011;42323;52.170;7.538;2023-12-28T05:03:00;362.20;;;188.82;;
56419;SDS011;42323;52.170;7.538;2023-12-28T05:05:27;346.17;;;187.20;;
56419;SDS011;42323;52.170;7.538;2023-12-28T05:07:53;351.17;;;189.63;;
56419;SDS011;42323;52.170;7.538;2023-12-28T05:10:20;369.33;;;191.45;;
56419;SDS011;42323;52.170;7.538;2023-12-28T05:12:46;365.98;;;189.50;;
56419;SDS011;42323;52.170;7.538;2023-12-28T05:15:12;363.20;;;193.27;;
56419;SDS011;42323;52.170;7.538;2023-12-28T05:17:39;374.65;;;193.40;;
56419;SDS011;42323;52.170;7.538;2023-12-28T05:20:06;374.85;;;192.43;;
56419;SDS011;42323;52.170;7.538;2023-12-28T05:22:32;364.77;;;194.20;;
56419;SDS011;42323;52.170;7.538;2023-12-28T05:24:59;374.52;;;191.60;;
56419;SDS011;42323;52.170;7.538;2023-12-28T05:27:25;347.63;;;184.35;;
56419;SDS011;42323;52.170;7.538;2023-12-28T05:29:52;372.70;;;195.93;;
56419;SDS011;42323;52.170;7.538;2023-12-28T05:32:20;361.98;;;191.32;;
56419;SDS011;42323;52.170;7.538;2023-12-28T05:34:46;355.73;;;188.75;;
56419;SDS011;42323;52.170;7.538;2023-12-28T05:37:13;362.30;;;193.15;;
56419;SDS011;42323;52.170;7.538;2023-12-28T05:39:40;365.92;;;193.23;;
56419;SDS011;42323;52.170;7.538;2023-12-28T05:42:06;357.33;;;189.63;;
56419;SDS011;42323;52.170;7.538;2023-12-28T05:44:33;363.15;;;191.85;;
56419;SDS011;42323;52.170;7.538;2023-12-28T05:47:01;353.95;;;188.02;;
56419;SDS011;42323;52.170;7.538;2023-12-28T05:49:27;364.90;;;190.63;;
56419;SDS011;42323;52.170;7.538;2023-12-28T05:51:55;363.75;;;191.30;;
56419;SDS011;42323;52.170;7.538;2023-12-28T05:54:21;372.02;;;190.02;;
56419;SDS011;42323;52.170;7.538;2023-12-28T05:56:48;303.20;;;156.55;;
56419;SDS011;42323;52.170;7.538;2023-12-28T05:59:14;294.77;;;158.23;;
56419;SDS011;42323;52.170;7.538;2023-12-28T06:01:44;322.08;;;171.30;;
56419;SDS011;42323;52.170;7.538;2023-12-28T06:04:10;358.98;;;189.00;;
56419;SDS011;42323;52.170;7.538;2023-12-28T06:06:37;365.85;;;191.32;;
56419;SDS011;42323;52.170;7.538;2023-12-28T06:09:04;367.15;;;191.15;;
56419;SDS011;42323;52.170;7.538;2023-12-28T06:11:30;368.95;;;193.38;;
56419;SDS011;42323;52.170;7.538;2023-12-28T06:13:57;373.20;;;190.15;;
56419;SDS011;42323;52.170;7.538;2023-12-28T06:16:23;366.65;;;191.68;;
56419;SDS011;42323;52.170;7.538;2023-12-28T06:18:52;370.10;;;189.70;;
56419;SDS011;42323;52.170;7.538;2023-12-28T06:21:18;362.58;;;191.32;;
56419;SDS011;42323;52.170;7.538;2023-12-28T06:23:45;360.15;;;189.02;;
56419;SDS011;42323;52.170;7.538;2023-12-28T06:26:11;313.75;;;166.82;;
56419;SDS011;42323;52.170;7.538;2023-12-28T06:28:38;361.85;;;189.20;;
56419;SDS011;42323;52.170;7.538;2023-12-28T06:31:04;367.50;;;190.77;;
56419;SDS011;42323;52.170;7.538;2023-12-28T06:33:31;367.90;;;190.98;;
56419;SDS011;42323;52.170;7.538;2023-12-28T06:35:58;368.33;;;192.30;;
56419;SDS011;42323;52.170;7.538;2023-12-28T06:38:25;359.52;;;188.20;;
56419;SDS011;42323;52.170;7.538;2023-12-28T06:40:51;372.08;;;187.48;;
56419;SDS011;42323;52.170;7.538;2023-12-28T06:43:18;368.45;;;191.52;;
56419;SDS011;42323;52.170;7.538;2023-12-28T06:45:44;375.25;;;190.52;;
56419;SDS011;42323;52.170;7.538;2023-12-28T06:48:11;358.40;;;186.52;;
56419;SDS011;42323;52.170;7.538;2023-12-28T06:50:38;361.45;;;187.98;;
56419;SDS011;42323;52.170;7.538;2023-12-28T06:53:05;363.73;;;185.65;;
56419;SDS011;42323;52.170;7.538;2023-12-28T06:55:31;350.70;;;184.90;;
56419;SDS011;42323;52.170;7.538;2023-12-28T06:57:58;342.35;;;180.38;;
56419;SDS011;42323;52.170;7.538;2023-12-28T07:00:25;367.98;;;186.05;;
56419;SDS011;42323;52.170;7.538;2023-12-28T07:02:51;348.52;;;182.23;;
56419;SDS011;42323;52.170;7.538;2023-12-28T07:05:18;348.10;;;181.98;;
56419;SDS011;42323;52.170;7.538;2023-12-28T07:07:45;351.58;;;181.15;;
56419;SDS011;42323;52.170;7.538;2023-12-28T07:10:11;364.13;;;185.25;;
56419;SDS011;42323;52.170;7.538;2023-12-28T07:12:38;354.60;;;186.07;;
56419;SDS011;42323;52.170;7.538;2023-12-28T07:15:04;359.70;;;186.20;;
56419;SDS011;42323;52.170;7.538;2023-12-28T07:17:31;363.13;;;184.93;;
56419;SDS011;42323;52.170;7.538;2023-12-28T07:19:58;356.02;;;184.90;;
56419;SDS011;42323;52.170;7.538;2023-12-28T07:22:24;352.67;;;184.60;;
56419;SDS011;42323;52.170;7.538;2023-12-28T07:24:50;352.20;;;184.82;;
56419;SDS011;42323;52.170;7.538;2023-12-28T07:27:17;348.15;;;183.02;;
56419;SDS011;42323;52.170;7.538;2023-12-28T07:29:44;345.35;;;182.50;;
56419;SDS011;42323;52.170;7.538;2023-12-28T07:32:10;356.30;;;181.88;;
56419;SDS011;42323;52.170;7.538;2023-12-28T07:34:37;347.23;;;183.80;;
56419;SDS011;42323;52.170;7.538;2023-12-28T07:37:04;361.08;;;183.50;;
56419;SDS011;42323;52.170;7.538;2023-12-28T07:39:31;306.40;;;164.88;;
56419;SDS011;42323;52.170;7.538;2023-12-28T07:41:57;301.17;;;159.45;;
56419;SDS011;42323;52.170;7.538;2023-12-28T07:44:24;305.05;;;156.20;;
56419;SDS011;42323;52.170;7.538;2023-12-28T07:46:51;315.60;;;168.90;;
56419;SDS011;42323;52.170;7.538;2023-12-28T07:49:20;349.02;;;179.52;;
56419;SDS011;42323;52.170;7.538;2023-12-28T07:51:46;359.38;;;181.98;;
56419;SDS011;42323;52.170;7.538;2023-12-28T07:54:13;346.02;;;182.63;;
56419;SDS011;42323;52.170;7.538;2023-12-28T07:56:39;348.75;;;183.52;;
56419;SDS011;42323;52.170;7.538;2023-12-28T07:59:06;355.25;;;185.57;;
56419;SDS011;42323;52.170;7.538;2023-12-28T08:01:35;355.45;;;185.68;;
56419;SDS011;42323;52.170;7.538;2023-12-28T08:04:01;362.50;;;185.93;;
56419;SDS011;42323;52.170;7.538;2023-12-28T08:06:28;350.98;;;184.25;;
56419;SDS011;42323;52.170;7.538;2023-12-28T08:08:57;352.98;;;183.48;;
56419;SDS011;42323;52.170;7.538;2023-12-28T08:11:25;349.40;;;183.88;;
56419;SDS011;42323;52.170;7.538;2023-12-28T08:13:51;349.17;;;183.82;;
56419;SDS011;42323;52.170;7.538;2023-12-28T08:16:18;362.92;;;184.55;;
56419;SDS011;42323;52.170;7.538;2023-12-28T08:18:44;357.25;;;186.98;;
56419;SDS011;42323;52.170;7.538;2023-12-28T08:21:11;354.83;;;185.93;;
56419;SDS011;42323;52.170;7.538;2023-12-28T08:23:37;359.38;;;184.43;;
56419;SDS011;42323;52.170;7.538;2023-12-28T08:26:04;348.35;;;179.45;;
56419;SDS011;42323;52.170;7.538;2023-12-28T08:28:31;337.23;;;177.75;;
56419;SDS011;42323;52.170;7.538;2023-12-28T08:30:57;355.73;;;179.95;;
56419;SDS011;42323;52.170;7.538;2023-12-28T08:33:24;357.95;;;187.57;;
56419;SDS011;42323;52.170;7.538;2023-12-28T08:35:50;364.77;;;190.02;;
56419;SDS011;42323;52.170;7.538;2023-12-28T08:38:17;373.10;;;192.55;;
56419;SDS011;42323;52.170;7.538;2023-12-28T08:40:43;387.95;;;196.25;;
56419;SDS011;42323;52.170;7.538;2023-12-28T08:43:13;394.75;;;203.48;;
56419;SDS011;42323;52.170;7.538;2023-12-28T08:45:39;418.27;;;214.77;;
56419;SDS011;42323;52.170;7.538;2023-12-28T08:48:06;547.55;;;297.70;;
56419;SDS011;42323;52.170;7.538;2023-12-28T08:50:32;556.72;;;303.92;;
56419;SDS011;42323;52.170;7.538;2023-12-28T08:52:59;555.95;;;303.52;;
56419;SDS011;42323;52.170;7.538;2023-12-28T08:55:25;556.58;;;302.98;;
56419;SDS011;42323;52.170;7.538;2023-12-28T08:57:52;555.97;;;302.58;;
56419;SDS011;42323;52.170;7.538;2023-12-28T09:00:19;555.58;;;301.45;;
56419;SDS011;42323;52.170;7.538;2023-12-28T09:02:45;550.35;;;299.35;;
56419;SDS011;42323;52.170;7.538;2023-12-28T09:05:12;555.03;;;300.35;;
56419;SDS011;42323;52.170;7.538;2023-12-28T09:07:38;558.25;;;301.00;;
56419;SDS011;42323;52.170;7.538;2023-12-28T09:10:09;549.72;;;297.75;;
56419;SDS011;42323;52.170;7.538;2023-12-28T09:12:36;553.03;;;299.38;;
56419;SDS011;42323;52.170;7.538;2023-12-28T09:15:06;555.20;;;299.45;;
56419;SDS011;42323;52.170;7.538;2023-12-28T09:17:36;556.15;;;301.33;;
56419;SDS011;42323;52.170;7.538;2023-12-28T09:20:03;552.58;;;298.30;;
56419;SDS011;42323;52.170;7.538;2023-12-28T09:22:32;556.65;;;298.83;;
56419;SDS011;42323;52.170;7.538;2023-12-28T09:24:59;556.50;;;299.70;;
56419;SDS011;42323;52.170;7.538;2023-12-28T09:27:26;564.13;;;303.02;;
56419;SDS011;42323;52.170;7.538;2023-12-28T09:29:52;561.45;;;302.33;;
56419;SDS011;42323;52.170;7.538;2023-12-28T09:32:19;554.13;;;299.45;;
56419;SDS011;42323;52.170;7.538;2023-12-28T09:34:45;579.22;;;301.60;;
56419;SDS011;42323;52.170;7.538;2023-12-28T09:37:12;560.25;;;300.55;;
56419;SDS011;42323;52.170;7.538;2023-12-28T09:39:38;562.95;;;300.13;;
56419;SDS011;42323;52.170;7.538;2023-12-28T09:42:06;579.22;;;302.92;;
56419;SDS011;42323;52.170;7.538;2023-12-28T09:44:36;568.78;;;304.02;;
56419;SDS011;42323;52.170;7.538;2023-12-28T09:47:04;564.65;;;303.77;;
56419;SDS011;42323;52.170;7.538;2023-12-28T09:49:33;567.30;;;305.23;;
56419;SDS011;42323;52.170;7.538;2023-12-28T09:52:01;565.33;;;304.15;;
56419;SDS011;42323;52.170;7.538;2023-12-28T09:54:27;561.63;;;303.02;;
56419;SDS011;42323;52.170;7.538;2023-12-28T09:56:54;560.00;;;299.95;;
56419;SDS011;42323;52.170;7.538;2023-12-28T09:59:20;581.60;;;304.25;;
56419;SDS011;42323;52.170;7.538;2023-12-28T10:01:47;567.97;;;303.33;;
56419;SDS011;42323;52.170;7.538;2023-12-28T10:04:14;567.50;;;302.13;;
56419;SDS011;42323;52.170;7.538;2023-12-28T10:06:41;559.92;;;300.98;;
56419;SDS011;42323;52.170;7.538;2023-12-28T10:09:07;583.67;;;304.30;;
56419;SDS011;42323;52.170;7.538;2023-12-28T10:11:34;567.60;;;304.80;;
56419;SDS011;42323;52.170;7.538;2023-12-28T10:14:00;568.30;;;303.13;;
56419;SDS011;42323;52.170;7.538;2023-12-28T10:16:28;567.63;;;303.40;;
56419;SDS011;42323;52.170;7.538;2023-12-28T10:18:55;587.03;;;304.27;;
56419;SDS011;42323;52.170;7.538;2023-12-28T10:21:22;575.40;;;299.58;;
56419;SDS011;42323;52.170;7.538;2023-12-28T10:23:49;575.28;;;299.45;;
56419;SDS011;42323;52.170;7.538;2023-12-28T10:26:17;558.45;;;298.50;;
56419;SDS011;42323;52.170;7.538;2023-12-28T10:28:44;563.50;;;301.23;;
56419;SDS011;42323;52.170;7.538;2023-12-28T10:31:10;578.15;;;300.52;;
56419;SDS011;42323;52.170;7.538;2023-12-28T10:33:38;557.88;;;298.13;;
56419;SDS011;42323;52.170;7.538;2023-12-28T10:36:06;563.67;;;300.67;;
56419;SDS011;42323;52.170;7.538;2023-12-28T10:38:34;561.40;;;300.60;;
56419;SDS011;42323;52.170;7.538;2023-12-28T10:41:01;563.03;;;300.63;;
56419;SDS011;42323;52.170;7.538;2023-12-28T10:43:29;563.40;;;302.15;;
56419;SDS011;42323;52.170;7.538;2023-12-28T10:45:55;556.58;;;300.30;;
56419;SDS011;42323;52.170;7.538;2023-12-28T10:48:29;563.83;;;301.75;;
56419;SDS011;42323;52.170;7.538;2023-12-28T10:51:00;574.00;;;300.80;;
56419;SDS011;42323;52.170;7.538;2023-12-28T10:59:03;571.03;;;301.17;;
56419;SDS011;42323;52.170;7.538;2023-12-28T11:01:32;560.83;;;302.55;;
56419;SDS011;42323;52.170;7.538;2023-12-28T11:04:26;566.63;;;304.27;;
56419;SDS011;42323;52.170;7.538;2023-12-28T11:06:48;563.42;;;302.88;;
56419;SDS011;42323;52.170;7.538;2023-12-28T11:09:15;580.05;;;303.95;;
56419;SDS011;42323;52.170;7.538;2023-12-28T11:11:45;563.58;;;303.63;;
56419;SDS011;42323;52.170;7.538;2023-12-28T11:14:12;565.00;;;302.80;;
56419;SDS011;42323;52.170;7.538;2023-12-28T11:16:39;564.17;;;302.05;;
56419;SDS011;42323;52.170;7.538;2023-12-28T11:19:06;563.47;;;301.48;;
56419;SDS011;42323;52.170;7.538;2023-12-28T11:21:33;560.05;;;297.08;;
56419;SDS011;42323;52.170;7.538;2023-12-28T11:24:00;558.30;;;296.90;;
56419;SDS011;42323;52.170;7.538;2023-12-28T11:26:27;559.20;;;297.23;;
56419;SDS011;42323;52.170;7.538;2023-12-28T11:29:01;559.80;;;297.58;;
56419;SDS011;42323;52.170;7.538;2023-12-28T11:31:28;569.30;;;295.02;;
56419;SDS011;42323;52.170;7.538;2023-12-28T11:33:59;581.67;;;299.23;;
56419;SDS011;42323;52.170;7.538;2023-12-28T11:39:02;577.45;;;300.17;;
56419;SDS011;42323;52.170;7.538;2023-12-28T11:41:32;563.47;;;299.60;;
56419;SDS011;42323;52.170;7.538;2023-12-28T11:44:03;584.95;;;301.88;;
56419;SDS011;42323;52.170;7.538;2023-12-28T11:46:31;567.92;;;301.40;;
56419;SDS011;42323;52.170;7.538;2023-12-28T11:49:07;568.13;;;301.17;;
56419;SDS011;42323;52.170;7.538;2023-12-28T11:51:36;585.38;;;304.05;;
56419;SDS011;42323;52.170;7.538;2023-12-28T11:54:04;583.40;;;300.85;;
56419;SDS011;42323;52.170;7.538;2023-12-28T11:56:31;567.00;;;300.00;;
56419;SDS011;42323;52.170;7.538;2023-12-28T11:58:58;566.97;;;300.40;;
56419;SDS011;42323;52.170;7.538;2023-12-28T12:01:25;566.65;;;299.25;;
56419;SDS011;42323;52.170;7.538;2023-12-28T12:03:51;590.55;;;301.08;;
56419;SDS011;42323;52.170;7.538;2023-12-28T12:06:19;584.60;;;300.48;;
56419;SDS011;42323;52.170;7.538;2023-12-28T12:08:46;587.38;;;300.92;;
56419;SDS011;42323;52.170;7.538;2023-12-28T12:11:13;589.88;;;303.08;;
56419;SDS011;42323;52.170;7.538;2023-12-28T12:13:39;591.38;;;301.25;;
56419;SDS011;42323;52.170;7.538;2023-12-28T12:16:06;570.60;;;299.23;;
56419;SDS011;42323;52.170;7.538;2023-12-28T12:18:33;580.33;;;298.13;;
56419;SDS011;42323;52.170;7.538;2023-12-28T12:21:01;571.08;;;300.77;;
56419;SDS011;42323;52.170;7.538;2023-12-28T12:23:27;565.95;;;297.75;;
56419;SDS011;42323;52.170;7.538;2023-12-28T12:25:54;580.38;;;296.80;;
56419;SDS011;42323;52.170;7.538;2023-12-28T12:28:20;564.70;;;297.52;;
56419;SDS011;42323;52.170;7.538;2023-12-28T12:30:51;559.55;;;295.38;;
56419;SDS011;42323;52.170;7.538;2023-12-28T12:33:18;558.92;;;294.88;;
56419;SDS011;42323;52.170;7.538;2023-12-28T12:35:44;578.65;;;298.20;;
56419;SDS011;42323;52.170;7.538;2023-12-28T12:38:11;557.95;;;295.92;;
56419;SDS011;42323;52.170;7.538;2023-12-28T12:40:37;562.08;;;296.83;;
56419;SDS011;42323;52.170;7.538;2023-12-28T12:43:04;560.80;;;296.95;;
56419;SDS011;42323;52.170;7.538;2023-12-28T12:45:32;561.80;;;297.88;;
56419;SDS011;42323;52.170;7.538;2023-12-28T12:47:59;556.50;;;297.35;;
56419;SDS011;42323;52.170;7.538;2023-12-28T12:50:25;559.97;;;298.05;;
56419;SDS011;42323;52.170;7.538;2023-12-28T12:52:52;573.75;;;296.40;;
56419;SDS011;42323;52.170;7.538;2023-12-28T12:55:18;573.88;;;297.50;;
56419;SDS011;42323;52.170;7.538;2023-12-28T12:57:45;575.25;;;297.83;;
56419;SDS011;42323;52.170;7.538;2023-12-28T13:00:11;564.63;;;300.00;;
56419;SDS011;42323;52.170;7.538;2023-12-28T13:02:38;577.95;;;298.38;;
56419;SDS011;42323;52.170;7.538;2023-12-28T13:05:05;553.15;;;293.42;;
56419;SDS011;42323;52.170;7.538;2023-12-28T13:07:32;553.83;;;294.55;;
56419;SDS011;42323;52.170;7.538;2023-12-28T13:09:58;564.88;;;293.35;;
56419;SDS011;42323;52.170;7.538;2023-12-28T13:12:25;559.75;;;298.00;;
56419;SDS011;42323;52.170;7.538;2023-12-28T13:14:51;560.17;;;298.00;;
56419;SDS011;42323;52.170;7.538;2023-12-28T13:17:18;560.03;;;298.40;;
56419;SDS011;42323;52.170;7.538;2023-12-28T13:19:44;578.25;;;298.95;;
56419;SDS011;42323;52.170;7.538;2023-12-28T13:22:11;556.83;;;296.33;;
56419;SDS011;42323;52.170;7.538;2023-12-28T13:24:37;562.95;;;300.63;;
56419;SDS011;42323;52.170;7.538;2023-12-28T13:27:04;561.75;;;299.33;;
56419;SDS011;42323;52.170;7.538;2023-12-28T13:29:30;558.80;;;298.92;;
56419;SDS011;42323;52.170;7.538;2023-12-28T13:31:57;556.17;;;296.45;;
56419;SDS011;42323;52.170;7.538;2023-12-28T13:34:24;574.17;;;297.30;;
56419;SDS011;42323;52.170;7.538;2023-12-28T13:36:51;558.22;;;298.17;;
56419;SDS011;42323;52.170;7.538;2023-12-28T13:39:17;557.25;;;297.58;;
56419;SDS011;42323;52.170;7.538;2023-12-28T13:41:44;554.60;;;298.38;;
56419;SDS011;42323;52.170;7.538;2023-12-28T13:44:10;574.28;;;298.67;;
56419;SDS011;42323;52.170;7.538;2023-12-28T13:46:38;554.13;;;296.95;;
56419;SDS011;42323;52.170;7.538;2023-12-28T13:49:05;570.53;;;297.90;;
56419;SDS011;42323;52.170;7.538;2023-12-28T13:51:33;573.35;;;300.08;;
56419;SDS011;42323;52.170;7.538;2023-12-28T13:54:00;557.47;;;298.70;;
56419;SDS011;42323;52.170;7.538;2023-12-28T13:56:30;559.65;;;299.17;;
56419;SDS011;42323;52.170;7.538;2023-12-28T13:58:56;559.00;;;299.25;;
56419;SDS011;42323;52.170;7.538;2023-12-28T14:01:23;576.15;;;298.98;;
56419;SDS011;42323;52.170;7.538;2023-12-28T14:03:49;559.55;;;299.15;;